createdAt,value
2022-12-25T00:01:20.991Z,7.82
2022-12-25T00:03:47.828Z,6.65
2022-12-25T00:06:14.829Z,6.88
2022-12-25T00:08:42.325Z,7.20
2022-12-25T00:11:15.226Z,7.30
2022-12-25T00:13:42.009Z,7.30
2022-12-25T00:16:16.128Z,7.07
2022-12-25T00:18:42.776Z,7.10
2022-12-25T00:21:10.910Z,6.95
2022-12-25T00:23:37.485Z,6.55
2022-12-25T00:26:06.463Z,6.65
2022-12-25T00:28:33.180Z,7.68
2022-12-25T00:30:59.800Z,6.65
2022-12-25T00:33:26.470Z,6.70
2022-12-25T00:36:00.558Z,6.00
2022-12-25T00:38:27.705Z,6.00
2022-12-25T00:40:54.631Z,6.88
2022-12-25T00:43:21.289Z,6.63
2022-12-25T00:45:59.280Z,6.72
2022-12-25T00:48:27.232Z,6.60
2022-12-25T00:50:56.010Z,6.80
2022-12-25T00:53:23.866Z,7.00
2022-12-25T00:56:00.929Z,6.57
2022-12-25T00:58:29.792Z,6.28
2022-12-25T01:00:56.791Z,6.60
2022-12-25T01:03:24.557Z,6.25
2022-12-25T01:05:56.941Z,6.40
2022-12-25T01:08:23.613Z,6.38
2022-12-25T01:10:54.681Z,5.85
2022-12-25T01:13:21.668Z,6.95
2022-12-25T01:15:48.379Z,6.57
2022-12-25T01:18:14.939Z,6.47
2022-12-25T01:20:42.317Z,6.60
2022-12-25T01:23:08.805Z,6.57
2022-12-25T01:25:35.378Z,6.35
2022-12-25T01:28:01.939Z,6.43
2022-12-25T01:30:28.584Z,6.13
2022-12-25T01:32:55.013Z,5.95
2022-12-25T01:35:21.596Z,6.57
2022-12-25T01:37:48.153Z,6.90
2022-12-25T01:40:14.658Z,6.05
2022-12-25T01:42:41.093Z,6.30
2022-12-25T01:45:43.598Z,6.65
2022-12-25T01:48:16.697Z,5.72
2022-12-25T01:50:47.029Z,6.03
2022-12-25T01:53:13.878Z,6.18
2022-12-25T01:55:43.867Z,5.95
2022-12-25T01:58:10.488Z,6.78
2022-12-25T02:00:37.015Z,5.85
2022-12-25T02:03:04.006Z,6.53
2022-12-25T02:05:33.385Z,6.10
2022-12-25T02:08:04.471Z,5.68
2022-12-25T02:10:31.068Z,6.20
2022-12-25T02:12:58.277Z,5.70
2022-12-25T02:15:34.169Z,5.85
2022-12-25T02:18:08.984Z,5.60
2022-12-25T02:21:03.238Z,6.13
2022-12-25T02:23:56.323Z,5.68
2022-12-25T02:26:41.814Z,5.78
2022-12-25T02:29:27.178Z,5.90
2022-12-25T02:32:14.384Z,5.75
2022-12-25T02:34:45.330Z,6.35
2022-12-25T02:37:37.093Z,6.07
2022-12-25T02:40:32.895Z,5.82
2022-12-25T02:43:21.169Z,5.18
2022-12-25T02:46:15.838Z,5.85
2022-12-25T02:49:06.722Z,6.07
2022-12-25T02:51:55.645Z,6.03
2022-12-25T02:54:47.093Z,6.05
2022-12-25T02:57:35.910Z,6.40
2022-12-25T03:00:23.732Z,5.78
2022-12-25T03:03:11.719Z,5.75
2022-12-25T03:05:59.536Z,6.25
2022-12-25T03:08:32.494Z,5.45
2022-12-25T03:11:24.434Z,6.20
2022-12-25T03:14:17.799Z,6.60
2022-12-25T03:16:53.708Z,5.82
2022-12-25T03:19:43.015Z,5.80
2022-12-25T03:22:33.781Z,5.80
2022-12-25T03:25:19.257Z,6.20
2022-12-25T03:27:49.112Z,6.18
2022-12-25T03:30:34.448Z,6.45
2022-12-25T03:34:01.126Z,5.68
2022-12-25T03:36:39.057Z,5.85
2022-12-25T03:39:47.207Z,5.75
2022-12-25T03:42:37.469Z,5.55
2022-12-25T03:45:29.722Z,6.00
2022-12-25T03:48:09.600Z,5.55
2022-12-25T03:51:00.353Z,5.75
2022-12-25T03:54:14.976Z,6.10
2022-12-25T03:57:01.968Z,5.43
2022-12-25T03:59:47.026Z,5.38
2022-12-25T04:02:31.990Z,5.13
2022-12-25T04:05:17.260Z,5.63
2022-12-25T04:08:02.232Z,5.75
2022-12-25T04:10:47.724Z,5.13
2022-12-25T04:13:33.875Z,5.20
2022-12-25T04:16:19.498Z,5.25
2022-12-25T04:19:04.715Z,5.35
2022-12-25T04:21:49.787Z,5.15
2022-12-25T04:24:34.699Z,5.30
2022-12-25T04:27:19.539Z,6.03
2022-12-25T04:30:04.465Z,5.40
2022-12-25T04:32:49.544Z,5.38
2022-12-25T04:35:34.992Z,5.32
2022-12-25T04:38:01.999Z,5.30
2022-12-25T04:40:28.614Z,5.40
2022-12-25T04:42:55.062Z,5.60
2022-12-25T04:45:21.536Z,5.07
2022-12-25T04:47:48.176Z,5.00
2022-12-25T04:50:14.683Z,4.63
2022-12-25T04:52:42.325Z,4.75
2022-12-25T04:55:10.929Z,5.03
2022-12-25T04:57:38.042Z,5.07
2022-12-25T05:00:06.081Z,4.53
2022-12-25T05:02:32.834Z,4.88
2022-12-25T05:04:59.521Z,5.38
2022-12-25T05:07:26.023Z,4.95
2022-12-25T05:09:52.730Z,4.90
2022-12-25T05:12:19.322Z,4.38
2022-12-25T05:14:45.859Z,5.05
2022-12-25T05:17:12.431Z,4.65
2022-12-25T05:19:39.059Z,4.80
2022-12-25T05:22:05.671Z,4.72
2022-12-25T05:24:32.249Z,4.57
2022-12-25T05:26:58.728Z,4.47
2022-12-25T05:29:25.315Z,4.75
2022-12-25T05:31:51.933Z,4.25
2022-12-25T05:34:18.572Z,4.90
2022-12-25T05:36:45.111Z,4.47
2022-12-25T05:39:11.579Z,4.15
2022-12-25T05:41:38.079Z,4.32
2022-12-25T05:44:04.719Z,4.70
2022-12-25T05:46:31.305Z,4.15
2022-12-25T05:48:57.860Z,4.50
2022-12-25T05:51:26.079Z,4.22
2022-12-25T05:53:52.637Z,4.38
2022-12-25T05:56:19.136Z,4.68
2022-12-25T05:58:45.706Z,4.00
2022-12-25T06:01:16.939Z,4.20
2022-12-25T06:03:43.833Z,4.20
2022-12-25T06:06:11.581Z,4.15
2022-12-25T06:08:38.198Z,4.88
2022-12-25T06:11:09.365Z,4.30
2022-12-25T06:13:36.192Z,4.00
2022-12-25T06:16:08.962Z,3.75
2022-12-25T06:18:41.004Z,4.45
2022-12-25T06:21:09.297Z,4.10
2022-12-25T06:23:36.723Z,4.00
2022-12-25T06:26:06.252Z,3.90
2022-12-25T06:28:32.804Z,3.97
2022-12-25T06:30:59.401Z,3.90
2022-12-25T06:33:25.941Z,3.97
2022-12-25T06:35:52.495Z,3.53
2022-12-25T06:38:19.023Z,3.67
2022-12-25T06:40:45.762Z,3.60
2022-12-25T06:43:12.282Z,4.00
2022-12-25T06:45:38.848Z,3.53
2022-12-25T06:48:05.672Z,3.72
2022-12-25T06:50:32.263Z,3.80
2022-12-25T06:52:58.717Z,3.83
2022-12-25T06:55:25.205Z,3.75
2022-12-25T06:57:51.728Z,3.72
2022-12-25T07:00:18.451Z,4.00
2022-12-25T07:02:48.449Z,4.13
2022-12-25T07:05:15.065Z,3.40
2022-12-25T07:07:41.584Z,3.67
2022-12-25T07:10:08.770Z,3.70
2022-12-25T07:12:35.325Z,3.65
2022-12-25T07:15:01.796Z,4.03
2022-12-25T07:17:28.390Z,3.88
2022-12-25T07:19:56.581Z,3.45
2022-12-25T07:22:23.087Z,3.55
2022-12-25T07:24:49.561Z,3.70
2022-12-25T07:27:16.093Z,3.67
2022-12-25T07:29:42.614Z,3.65
2022-12-25T07:32:09.408Z,3.35
2022-12-25T07:34:35.924Z,3.15
2022-12-25T07:37:02.618Z,3.45
2022-12-25T07:39:29.255Z,3.55
2022-12-25T07:41:55.795Z,3.30
2022-12-25T07:44:22.337Z,3.50
2022-12-25T07:46:48.888Z,3.65
2022-12-25T07:49:15.455Z,3.75
2022-12-25T07:51:43.412Z,3.17
2022-12-25T07:54:09.974Z,3.22
2022-12-25T07:56:36.542Z,3.85
2022-12-25T07:59:03.290Z,3.35
2022-12-25T08:01:30.448Z,3.83
2022-12-25T08:03:59.792Z,3.47
2022-12-25T08:06:32.930Z,3.15
2022-12-25T08:09:07.066Z,3.28
2022-12-25T08:11:33.932Z,3.60
2022-12-25T08:14:00.529Z,3.33
2022-12-25T08:16:27.118Z,3.63
2022-12-25T08:18:53.679Z,3.92
2022-12-25T08:21:20.265Z,4.32
2022-12-25T08:23:48.332Z,3.70
2022-12-25T08:26:18.125Z,4.00
2022-12-25T08:28:45.334Z,3.60
2022-12-25T08:31:29.358Z,4.07
2022-12-25T08:33:58.312Z,4.50
2022-12-25T08:36:25.228Z,4.15
2022-12-25T08:38:54.584Z,4.13
2022-12-25T08:41:25.208Z,3.88
2022-12-25T08:43:51.708Z,4.40
2022-12-25T08:46:18.417Z,4.35
2022-12-25T08:48:48.680Z,4.07
2022-12-25T08:51:19.060Z,4.38
2022-12-25T08:53:47.373Z,4.20
2022-12-25T08:56:15.215Z,4.05
2022-12-25T08:58:43.269Z,3.90
2022-12-25T09:01:10.199Z,3.45
2022-12-25T09:03:36.952Z,3.55
2022-12-25T09:06:08.381Z,4.10
2022-12-25T09:08:35.856Z,3.92
2022-12-25T09:11:09.055Z,3.20
2022-12-25T09:13:36.910Z,3.25
2022-12-25T09:16:12.668Z,3.20
2022-12-25T09:18:39.356Z,3.38
2022-12-25T09:21:10.568Z,3.33
2022-12-25T09:23:37.118Z,3.30
2022-12-25T09:26:05.540Z,3.58
2022-12-25T09:30:59.460Z,3.42
2022-12-25T09:33:26.090Z,3.22
2022-12-25T09:35:57.418Z,3.65
2022-12-25T09:38:24.487Z,3.75
2022-12-25T09:41:12.855Z,3.08
2022-12-25T09:43:45.468Z,3.42
2022-12-25T09:46:17.058Z,3.38
2022-12-25T09:48:55.210Z,3.25
2022-12-25T09:51:23.780Z,3.47
2022-12-25T09:54:09.308Z,3.45
2022-12-25T09:56:36.947Z,3.47
2022-12-25T09:59:03.745Z,3.53
2022-12-25T10:01:49.223Z,3.55
2022-12-25T10:04:27.587Z,3.60
2022-12-25T10:06:57.033Z,3.55
2022-12-25T10:09:56.667Z,3.55
2022-12-25T10:12:55.364Z,8.13
2022-12-25T10:15:48.064Z,3.53
2022-12-25T10:18:33.775Z,3.53
2022-12-25T10:21:03.949Z,3.45
2022-12-25T10:23:55.708Z,3.42
2022-12-25T10:26:25.437Z,3.05
2022-12-25T10:29:15.032Z,4.85
2022-12-25T10:31:47.013Z,4.85
2022-12-25T10:34:14.786Z,4.40
2022-12-25T10:36:43.729Z,4.80
2022-12-25T10:39:17.389Z,4.18
2022-12-25T10:42:05.060Z,5.88
2022-12-25T10:44:33.240Z,5.40
2022-12-25T10:47:01.663Z,5.55
2022-12-25T10:52:00.172Z,5.75
2022-12-25T10:54:28.212Z,4.75
2022-12-25T10:57:14.649Z,12.77
2022-12-25T10:59:58.991Z,4.43
2022-12-25T11:02:34.452Z,3.92
2022-12-25T11:05:03.203Z,4.57
2022-12-25T11:07:31.132Z,3.88
2022-12-25T11:10:05.731Z,4.30
2022-12-25T11:12:42.004Z,4.80
2022-12-25T11:15:32.248Z,3.97
2022-12-25T11:17:58.843Z,3.83
2022-12-25T11:20:25.802Z,4.97
2022-12-25T11:22:52.645Z,4.50
2022-12-25T11:25:26.155Z,4.30
2022-12-25T11:28:05.828Z,5.07
2022-12-25T11:30:34.638Z,4.53
2022-12-25T11:33:04.985Z,4.72
2022-12-25T11:35:37.332Z,4.50
2022-12-25T11:38:04.026Z,4.88
2022-12-25T11:40:36.754Z,5.07
2022-12-25T11:43:12.678Z,5.00
2022-12-25T11:45:45.490Z,4.75
2022-12-25T11:48:18.009Z,13.38
2022-12-25T11:50:55.680Z,7.43
2022-12-25T11:53:30.600Z,4.93
2022-12-25T11:56:01.953Z,4.80
2022-12-25T11:58:53.019Z,4.95
2022-12-25T12:01:19.669Z,4.30
2022-12-25T12:03:46.422Z,4.75
2022-12-25T12:06:38.107Z,5.10
2022-12-25T12:09:31.825Z,5.22
2022-12-25T12:12:07.547Z,5.20
2022-12-25T12:14:52.851Z,5.00
2022-12-25T12:17:20.041Z,4.60
2022-12-25T12:19:46.614Z,5.20
2022-12-25T12:22:39.726Z,5.65
2022-12-25T12:25:07.983Z,7.20
2022-12-25T12:27:42.973Z,6.55
2022-12-25T12:30:27.129Z,6.28
2022-12-25T12:32:58.666Z,6.32
2022-12-25T12:35:39.953Z,6.30
2022-12-25T12:38:12.855Z,5.20
2022-12-25T12:40:41.200Z,6.05
2022-12-25T12:43:23.925Z,7.10
2022-12-25T12:45:57.055Z,6.10
2022-12-25T12:48:29.176Z,6.18
2022-12-25T12:51:07.160Z,7.03
2022-12-25T12:53:35.101Z,6.47
2022-12-25T12:56:28.258Z,10.43
2022-12-25T12:58:54.767Z,7.20
2022-12-25T13:01:27.342Z,8.90
2022-12-25T13:04:21.010Z,6.65
2022-12-25T13:06:51.382Z,6.53
2022-12-25T13:09:17.867Z,7.63
2022-12-25T13:11:45.127Z,6.60
2022-12-25T13:14:20.606Z,6.88
2022-12-25T13:16:49.892Z,7.20
2022-12-25T13:19:22.262Z,7.30
2022-12-25T13:22:01.075Z,7.30
2022-12-25T13:24:33.113Z,7.90
2022-12-25T13:27:00.308Z,7.90
2022-12-25T13:29:31.565Z,7.30
2022-12-25T13:31:59.505Z,7.32
2022-12-25T13:34:41.587Z,6.45
2022-12-25T13:37:13.229Z,6.95
2022-12-25T13:39:57.415Z,10.50
2022-12-25T13:42:27.427Z,7.10
2022-12-25T13:45:07.768Z,6.82
2022-12-25T13:47:40.767Z,6.60
2022-12-25T13:50:22.548Z,8.02
2022-12-25T13:52:49.601Z,9.65
2022-12-25T13:55:24.725Z,7.10
2022-12-25T13:58:17.203Z,7.47
2022-12-25T14:00:49.739Z,7.43
2022-12-25T14:03:23.569Z,7.47
2022-12-25T14:06:02.241Z,7.68
2022-12-25T14:08:32.106Z,8.35
2022-12-25T14:11:03.674Z,8.52
2022-12-25T14:13:33.127Z,9.45
2022-12-25T14:16:00.698Z,8.48
2022-12-25T14:18:28.267Z,9.30
2022-12-25T14:21:16.821Z,9.13
2022-12-25T14:23:46.887Z,8.80
2022-12-25T14:26:39.768Z,7.82
2022-12-25T14:31:42.473Z,7.97
2022-12-25T14:34:20.695Z,8.20
2022-12-25T14:36:48.694Z,7.78
2022-12-25T14:39:35.740Z,7.28
2022-12-25T14:42:13.756Z,8.63
2022-12-25T14:44:41.322Z,7.90
2022-12-25T14:47:10.801Z,10.05
2022-12-25T14:49:37.775Z,9.40
2022-12-25T14:52:21.106Z,10.15
2022-12-25T14:55:02.818Z,9.43
2022-12-25T14:57:37.690Z,9.18
2022-12-25T15:00:23.882Z,10.23
2022-12-25T15:02:52.942Z,10.43
2022-12-25T15:05:38.297Z,12.43
2022-12-25T15:08:13.827Z,11.52
2022-12-25T15:13:29.325Z,9.50
2022-12-25T15:16:02.485Z,9.15
2022-12-25T15:18:34.378Z,9.35
2022-12-25T15:21:00.940Z,10.43
2022-12-25T15:23:27.534Z,9.38
2022-12-25T15:25:54.130Z,8.35
2022-12-25T15:28:20.874Z,9.38
2022-12-25T15:30:47.802Z,10.43
2022-12-25T15:33:16.195Z,9.43
2022-12-25T15:38:12.689Z,9.27
2022-12-25T15:40:40.214Z,8.82
2022-12-25T15:43:20.906Z,8.65
2022-12-25T15:45:54.035Z,9.57
2022-12-25T15:48:20.639Z,9.48
2022-12-25T15:50:47.210Z,10.23
2022-12-25T15:53:14.179Z,13.18
2022-12-25T15:55:40.979Z,10.25
2022-12-25T15:58:15.221Z,8.95
2022-12-25T16:00:41.774Z,9.10
2022-12-25T16:03:08.398Z,9.55
2022-12-25T16:05:35.339Z,9.27
2022-12-25T16:08:01.889Z,9.48
2022-12-25T16:10:32.143Z,8.98
2022-12-25T16:13:01.526Z,13.35
2022-12-25T16:15:27.983Z,14.10
2022-12-25T16:17:54.597Z,18.45
2022-12-25T16:20:21.182Z,19.67
2022-12-25T16:22:47.737Z,15.50
2022-12-25T16:25:16.819Z,13.82
2022-12-25T16:27:44.015Z,18.67
2022-12-25T16:30:13.675Z,14.23
2022-12-25T16:32:42.355Z,14.95
2022-12-25T16:35:11.096Z,14.23
2022-12-25T16:37:38.155Z,12.45
2022-12-25T16:40:05.503Z,11.05
2022-12-25T16:42:32.057Z,10.27
2022-12-25T16:44:58.580Z,10.48
2022-12-25T16:47:25.830Z,10.23
2022-12-25T16:49:52.418Z,10.00
2022-12-25T16:52:18.975Z,9.10
2022-12-25T16:54:46.810Z,13.70
2022-12-25T16:57:14.602Z,11.52
2022-12-25T16:59:41.653Z,11.15
2022-12-25T17:02:14.412Z,13.10
2022-12-25T17:04:41.053Z,13.23
2022-12-25T17:07:07.540Z,14.50
2022-12-25T17:09:37.483Z,11.88
2022-12-25T17:12:07.928Z,10.30
2022-12-25T17:14:35.125Z,13.88
2022-12-25T17:17:02.531Z,9.65
2022-12-25T17:19:29.355Z,8.65
2022-12-25T17:21:56.028Z,8.80
2022-12-25T17:24:22.664Z,9.15
2022-12-25T17:26:49.189Z,11.85
2022-12-25T17:29:21.675Z,12.52
2022-12-25T17:31:48.812Z,12.05
2022-12-25T17:34:15.438Z,13.43
2022-12-25T17:36:42.049Z,10.98
2022-12-25T17:39:10.678Z,12.13
2022-12-25T17:41:37.219Z,14.00
2022-12-25T17:44:03.921Z,14.25
2022-12-25T17:46:31.203Z,14.30
2022-12-25T17:49:00.098Z,10.35
2022-12-25T17:51:31.215Z,10.50
2022-12-25T17:54:04.513Z,20.77
2022-12-25T17:56:32.493Z,22.55
2022-12-25T17:59:00.890Z,27.30
2022-12-25T18:01:28.875Z,13.52
2022-12-25T18:03:56.003Z,14.13
2022-12-25T18:06:25.979Z,15.60
2022-12-25T18:08:54.722Z,11.20
2022-12-25T18:11:24.009Z,10.82
2022-12-25T18:13:52.299Z,10.75
2022-12-25T18:16:22.121Z,10.85
2022-12-25T18:18:52.275Z,10.07
2022-12-25T18:21:20.826Z,10.15
2022-12-25T18:23:47.741Z,10.18
2022-12-25T18:26:14.909Z,8.80
2022-12-25T18:28:43.758Z,8.90
2022-12-25T18:31:13.777Z,8.32
2022-12-25T18:33:40.973Z,8.43
2022-12-25T18:36:14.985Z,9.38
2022-12-25T18:38:41.826Z,16.90
2022-12-25T18:41:09.335Z,9.55
2022-12-25T18:43:53.158Z,9.13
2022-12-25T18:46:27.267Z,8.63
2022-12-25T18:48:57.234Z,15.27
2022-12-25T18:51:24.810Z,15.95
2022-12-25T18:53:51.795Z,15.02
2022-12-25T18:56:18.859Z,9.05
2022-12-25T18:58:46.214Z,17.88
2022-12-25T19:01:18.902Z,12.73
2022-12-25T19:03:46.352Z,12.10
2022-12-25T19:06:21.339Z,16.90
2022-12-25T19:08:48.518Z,13.10
2022-12-25T19:11:15.740Z,11.15
2022-12-25T19:13:43.018Z,12.20
2022-12-25T19:16:10.189Z,10.80
2022-12-25T19:18:37.897Z,11.35
2022-12-25T19:21:07.032Z,10.88
2022-12-25T19:23:35.079Z,9.85
2022-12-25T19:26:04.751Z,11.52
2022-12-25T19:28:31.440Z,15.85
2022-12-25T19:31:00.574Z,11.80
2022-12-25T19:33:27.173Z,12.60
2022-12-25T19:35:53.685Z,13.93
2022-12-25T19:38:20.400Z,13.15
2022-12-25T19:41:00.417Z,12.98
2022-12-25T19:43:36.463Z,14.70
2022-12-25T19:46:04.663Z,13.73
2022-12-25T19:48:32.608Z,15.45
2022-12-25T19:50:59.316Z,15.98
2022-12-25T19:53:26.743Z,18.08
2022-12-25T19:55:53.877Z,19.30
2022-12-25T19:58:22.398Z,21.33
2022-12-25T20:01:05.119Z,17.00
2022-12-25T20:03:33.048Z,28.83
2022-12-25T20:06:00.103Z,18.17
2022-12-25T20:08:26.604Z,14.68
2022-12-25T20:10:53.147Z,14.75
2022-12-25T20:13:20.253Z,15.57
2022-12-25T20:15:47.458Z,17.45
2022-12-25T20:18:14.474Z,18.15
2022-12-25T20:20:41.073Z,17.42
2022-12-25T20:23:08.145Z,17.23
2022-12-25T20:25:34.699Z,31.50
2022-12-25T20:28:01.288Z,35.78
2022-12-25T20:30:27.755Z,19.75
2022-12-25T20:32:55.303Z,19.73
2022-12-25T20:35:21.801Z,15.65
2022-12-25T20:37:48.334Z,15.60
2022-12-25T20:40:15.016Z,19.52
2022-12-25T20:42:43.270Z,18.05
2022-12-25T20:45:12.405Z,15.52
2022-12-25T20:47:38.969Z,13.82
2022-12-25T20:50:06.562Z,13.50
2022-12-25T20:52:33.039Z,12.40
2022-12-25T20:54:59.689Z,16.77
2022-12-25T20:57:26.297Z,16.13
2022-12-25T20:59:53.558Z,16.35
2022-12-25T21:02:34.136Z,16.08
2022-12-25T21:05:04.331Z,14.00
2022-12-25T21:07:30.824Z,14.02
2022-12-25T21:09:57.370Z,14.95
2022-12-25T21:12:23.872Z,13.35
2022-12-25T21:14:50.811Z,12.65
2022-12-25T21:17:17.659Z,17.80
2022-12-25T21:19:44.294Z,16.08
2022-12-25T21:22:10.896Z,14.35
2022-12-25T21:24:37.441Z,11.57
2022-12-25T21:27:04.073Z,11.38
2022-12-25T21:29:30.882Z,10.65
2022-12-25T21:32:16.119Z,11.63
2022-12-25T21:34:42.747Z,10.98
2022-12-25T21:37:09.542Z,9.90
2022-12-25T21:39:36.096Z,10.23
2022-12-25T21:42:04.595Z,9.75
2022-12-25T21:44:31.204Z,9.88
2022-12-25T21:46:57.739Z,9.85
2022-12-25T21:49:42.928Z,9.38
2022-12-25T21:52:09.554Z,9.60
2022-12-25T21:54:36.521Z,9.40
2022-12-25T21:57:03.562Z,9.52
2022-12-25T21:59:30.153Z,9.25
2022-12-25T22:01:56.830Z,8.85
2022-12-25T22:04:23.778Z,9.27
2022-12-25T22:07:09.287Z,9.20
2022-12-25T22:09:35.961Z,9.10
2022-12-25T22:12:22.113Z,9.55
2022-12-25T22:14:56.684Z,8.52
2022-12-25T22:17:47.658Z,9.02
2022-12-25T22:20:27.291Z,9.40
2022-12-25T22:22:54.747Z,8.90
2022-12-25T22:25:21.581Z,8.57
2022-12-25T22:27:48.738Z,8.68
2022-12-25T22:30:18.827Z,8.30
2022-12-25T22:32:46.318Z,8.45
2022-12-25T22:35:14.138Z,9.35
2022-12-25T22:37:42.519Z,12.52
2022-12-25T22:40:12.504Z,20.20
2022-12-25T22:42:39.191Z,9.23
2022-12-25T22:45:06.362Z,7.85
2022-12-25T22:47:33.151Z,7.68
2022-12-25T22:49:59.822Z,8.07
2022-12-25T22:52:26.456Z,7.38
2022-12-25T22:54:52.989Z,7.38
2022-12-25T22:57:19.664Z,7.70
2022-12-25T22:59:46.269Z,7.68
2022-12-25T23:02:13.057Z,7.53
2022-12-25T23:04:39.719Z,8.68
2022-12-25T23:07:06.270Z,15.07
2022-12-25T23:09:32.858Z,10.93
2022-12-25T23:11:59.652Z,7.22
2022-12-25T23:14:39.405Z,7.30
2022-12-25T23:17:30.556Z,7.20
2022-12-25T23:20:17.549Z,8.70
2022-12-25T23:23:02.808Z,6.63
2022-12-25T23:25:48.140Z,8.65
2022-12-25T23:28:14.726Z,6.68
2022-12-25T23:30:41.187Z,5.93
2022-12-25T23:33:07.666Z,6.00
2022-12-25T23:35:34.271Z,6.55
2022-12-25T23:38:00.788Z,6.35
2022-12-25T23:40:27.241Z,6.13
2022-12-25T23:42:53.787Z,6.03
2022-12-25T23:45:20.268Z,6.32
2022-12-25T23:47:46.687Z,6.35
2022-12-25T23:50:13.224Z,6.72
2022-12-25T23:52:39.928Z,6.45
2022-12-25T23:55:07.123Z,6.63
2022-12-25T23:57:33.698Z,6.63
